Time;durP1;ratioP1;P1;durP2;ratioP2;P2;SDS_P1;SDS_P2;PMS_P1;PMS_P2;Temp;Humidity;BMP_temperature;BMP_pressure;BME280_temperature;BME280_humidity;BME280_pressure;Samples;Min_cycle;Max_cycle;Signal;HPM_P1;HPM_P2
2023/01/09 00:01:28;;;;;;;19.63;10.38;;;;;;;9.23;100.00;94728.75;5049145;28;20088;-45
2023/01/09 00:03:56;;;;;;;;;;;;;;;8.92;100.00;94734.13;5055992;28;20072;-42
2023/01/09 00:06:24;;;;;;;27.63;11.35;;;;;;;8.96;100.00;94739.84;5054002;28;19962;-42
2023/01/09 00:08:54;;;;;;;23.80;10.63;;;;;;;9.02;100.00;94733.88;5052075;28;20081;-45
2023/01/09 00:11:23;;;;;;;17.75;9.93;;;;;;;9.19;100.00;94734.56;5053842;28;20088;-47
2023/01/09 00:13:51;;;;;;;17.92;9.25;;;;;;;9.37;100.00;94747.38;5048191;28;20458;-42
2023/01/09 00:16:19;;;;;;;18.52;8.63;;;;;;;9.19;100.00;94742.44;5045161;28;20532;-45
2023/01/09 00:18:48;;;;;;;19.42;9.95;;;;;;;9.17;100.00;94757.56;5047548;28;20500;-42
2023/01/09 00:21:19;;;;;;;21.45;9.75;;;;;;;8.99;100.00;94765.78;5039488;28;20099;-42
2023/01/09 00:23:48;;;;;;;17.75;9.00;;;;;;;9.18;100.00;94753.94;5050478;28;20495;-42
2023/01/09 00:26:19;;;;;;;18.17;8.68;;;;;;;8.83;100.00;94776.41;5044411;28;20079;-42
2023/01/09 00:28:48;;;;;;;13.00;7.28;;;;;;;8.27;100.00;94787.06;5049182;28;20471;-45
2023/01/09 00:31:17;;;;;;;11.80;5.53;;;;;;;7.83;100.00;94791.00;5044827;28;20092;-43
2023/01/09 00:33:48;;;;;;;17.40;8.43;;;;;;;7.88;100.00;94795.75;5049805;28;20072;-44
2023/01/09 00:36:17;;;;;;;8.98;4.97;;;;;;;7.50;100.00;94795.50;5043385;28;20085;-42
2023/01/09 00:38:45;;;;;;;11.88;6.38;;;;;;;7.69;100.00;94796.94;5045520;28;20651;-42
2023/01/09 00:41:15;;;;;;;10.07;5.15;;;;;;;7.70;100.00;94793.31;5044909;28;20091;-46
2023/01/09 00:43:48;;;;;;;20.63;9.55;;;;;;;7.73;100.00;94794.78;5050608;28;20446;-44
2023/01/09 00:46:16;;;;;;;21.38;10.88;;;;;;;7.63;100.00;94796.78;5048870;28;20454;-43
2023/01/09 00:48:46;;;;;;;17.90;9.77;;;;;;;7.72;100.00;94793.16;5047998;28;20088;-43
2023/01/09 00:51:15;;;;;;;16.63;8.90;;;;;;;7.78;100.00;94798.56;5054820;28;20076;-43
2023/01/09 00:53:44;;;;;;;17.67;9.40;;;;;;;7.91;100.00;94789.31;5045473;28;20092;-43
2023/01/09 00:56:16;;;;;;;15.73;8.98;;;;;;;8.14;100.00;94792.03;5049401;28;20076;-43
2023/01/09 00:58:45;;;;;;;19.67;10.07;;;;;;;8.60;100.00;94785.09;5046685;28;20084;-43
2023/01/09 01:01:14;;;;;;;16.92;9.57;;;;;;;8.54;100.00;94793.69;5027660;28;20076;-42
2023/01/09 01:03:42;;;;;;;20.05;9.77;;;;;;;8.77;100.00;94793.69;5045354;28;20076;-42
2023/01/09 01:08:56;;;;;;;18.65;10.07;;;;;;;9.13;100.00;94769.44;5026768;28;20072;-45
2023/01/09 01:11:25;;;;;;;16.15;8.77;;;;;;;8.95;100.00;94769.75;5049000;28;20091;-47
2023/01/09 01:13:54;;;;;;;17.25;9.45;;;;;;;9.21;100.00;94772.00;5055445;28;20099;-46
2023/01/09 01:16:23;;;;;;;18.42;9.68;;;;;;;9.45;100.00;94771.78;5047767;28;20560;-46
2023/01/09 01:18:51;;;;;;;17.45;8.77;;;;;;;9.55;100.00;94771.53;5053215;28;20073;-46
2023/01/09 01:21:19;;;;;;;16.92;8.93;;;;;;;9.67;100.00;94766.63;5049588;28;20084;-43
2023/01/09 01:23:48;;;;;;;17.83;8.75;;;;;;;9.49;100.00;94769.59;5051987;28;20089;-44
2023/01/09 01:26:16;;;;;;;17.65;9.52;;;;;;;9.60;100.00;94763.91;5048363;28;20072;-44
2023/01/09 01:28:45;;;;;;;17.45;8.75;;;;;;;8.76;100.00;94769.22;5048623;28;20053;-42
2023/01/09 01:31:18;;;;;;;15.65;9.07;;;;;;;9.37;100.00;94752.63;5051745;28;20076;-46
2023/01/09 01:33:47;;;;;;;15.10;8.60;;;;;;;9.20;100.00;94747.50;5049733;28;20091;-42
2023/01/09 01:36:16;;;;;;;15.60;8.52;;;;;;;9.52;100.00;94758.72;5050794;28;20087;-45
2023/01/09 01:38:46;;;;;;;15.55;8.85;;;;;;;9.32;100.00;94768.13;5051732;28;20087;-44
2023/01/09 01:41:28;;;;;;;17.42;9.27;;;;;;;9.47;100.00;94764.53;5047874;28;20079;-42
2023/01/09 01:43:58;;;;;;;17.15;9.23;;;;;;;9.63;100.00;94755.63;5047602;28;20092;-44
2023/01/09 01:46:28;;;;;;;15.07;8.77;;;;;;;9.51;100.00;94747.38;5048924;28;20076;-47
2023/01/09 01:48:59;;;;;;;15.20;8.65;;;;;;;9.02;100.00;94750.47;5048502;28;20063;-45
2023/01/09 01:51:29;;;;;;;18.75;9.43;;;;;;;9.14;100.00;94750.03;5047484;28;20092;-42
2023/01/09 01:54:00;;;;;;;16.92;8.98;;;;;;;9.10;100.00;94735.63;5048021;28;20504;-42
2023/01/09 01:56:29;;;;;;;;;;;;;;;9.14;100.00;94732.44;5046067;28;20077;-43
2023/01/09 01:59:01;;;;;;;17.35;8.75;;;;;;;8.86;100.00;94729.56;5045721;28;20373;-45
2023/01/09 02:01:32;;;;;;;15.27;8.98;;;;;;;8.98;100.00;94750.97;5048433;28;20081;-43
2023/01/09 02:04:02;;;;;;;15.57;8.65;;;;;;;9.12;100.00;94757.28;5057002;28;20481;-45
2023/01/09 02:06:30;;;;;;;15.90;9.68;;;;;;;8.85;100.00;94771.81;5044892;28;20151;-44
2023/01/09 02:08:59;;;;;;;17.60;9.50;;;;;;;8.50;100.00;94771.38;5047192;28;20084;-44
2023/01/09 02:11:27;;;;;;;18.30;9.25;;;;;;;8.40;100.00;94770.78;5049950;28;20088;-45
2023/01/09 02:13:56;;;;;;;17.35;9.10;;;;;;;8.32;100.00;94767.16;5047367;28;20072;-45
2023/01/09 02:16:36;;;;;;;14.48;9.00;;;;;;;8.97;100.00;94763.31;5051303;28;20652;-42
2023/01/09 02:19:12;;;;;;;16.10;8.60;;;;;;;8.84;100.00;94743.88;5046984;28;20084;-45
2023/01/09 02:21:50;;;;;;;15.73;8.57;;;;;;;8.94;100.00;94739.19;5047632;28;20084;-45
2023/01/09 02:24:49;;;;;;;17.00;9.05;;;;;;;9.28;100.00;94749.25;5049492;28;20084;-46
2023/01/09 02:27:36;;;;;;;15.25;8.57;;;;;;;8.87;100.00;94752.22;5046778;28;20532;-45
2023/01/09 02:30:20;;;;;;;15.10;8.77;;;;;;;9.06;100.00;94758.00;5050352;28;20103;-44
2023/01/09 02:32:59;;;;;;;15.88;8.73;;;;;;;8.86;100.00;94747.16;5047349;28;20084;-42
2023/01/09 02:35:49;;;;;;;15.48;8.77;;;;;;;9.12;100.00;94746.75;5047855;28;20156;-42
2023/01/09 02:38:23;;;;;;;15.95;8.50;;;;;;;9.12;100.00;94746.75;5049028;28;20103;-43
2023/01/09 02:40:58;;;;;;;16.30;8.63;;;;;;;9.16;100.00;94748.88;5045988;28;20128;-42
2023/01/09 02:43:26;;;;;;;16.55;8.13;;;;;;;9.12;100.00;94750.22;5052096;28;20080;-44
2023/01/09 02:45:56;;;;;;;14.57;8.80;;;;;;;9.07;100.00;94755.19;5052080;28;20065;-44
2023/01/09 02:48:24;;;;;;;18.30;8.10;;;;;;;8.83;100.00;94758.81;5045563;28;20088;-44
2023/01/09 02:51:01;;;;;;;13.40;8.18;;;;;;;8.73;100.00;94748.53;5045879;28;20076;-48
2023/01/09 02:54:01;;;;;;;15.18;8.30;;;;;;;8.75;100.00;94743.94;5048098;28;20399;-46
2023/01/09 02:57:01;;;;;;;13.48;7.88;;;;;;;9.12;100.00;94736.25;4966107;28;20086;-44
2023/01/09 02:59:32;;;;;;;16.98;8.90;;;;;;;9.24;100.00;94733.00;5039489;28;20107;-43
2023/01/09 03:02:17;;;;;;;14.93;8.43;;;;;;;9.16;100.00;94733.09;5046264;28;20634;-43
2023/01/09 03:04:52;;;;;;;15.15;8.50;;;;;;;9.07;100.00;94728.09;5047314;28;20077;-42
2023/01/09 03:07:23;;;;;;;13.52;7.88;;;;;;;9.32;100.00;94737.38;5049967;28;20092;-45
2023/01/09 03:09:56;;;;;;;14.88;7.82;;;;;;;9.43;100.00;94744.84;5047939;28;20079;-47
2023/01/09 03:12:27;;;;;;;13.10;8.05;;;;;;;9.05;100.00;94746.69;5047928;28;20092;-43
2023/01/09 03:14:58;;;;;;;14.02;7.90;;;;;;;9.38;100.00;94741.91;5049469;28;20575;-45
2023/01/09 03:17:28;;;;;;;;;;;;;;;9.30;100.00;94736.75;5045197;28;20085;-43
2023/01/09 03:19:57;;;;;;;12.80;7.13;;;;;;;9.31;100.00;94733.13;5047898;28;19963;-46
2023/01/09 03:22:25;;;;;;;11.25;6.85;;;;;;;9.41;100.00;94738.13;5047534;28;20091;-43
2023/01/09 03:24:54;;;;;;;12.80;7.85;;;;;;;9.18;100.00;94736.34;5050284;28;20089;-44
2023/01/09 03:27:22;;;;;;;12.80;7.07;;;;;;;9.47;100.00;94737.41;5045819;28;20079;-46
2023/01/09 03:29:52;;;;;;;13.43;7.95;;;;;;;9.15;100.00;94736.72;5046602;28;20080;-41
2023/01/09 03:32:20;;;;;;;12.57;6.90;;;;;;;9.27;100.00;94737.91;5046762;28;20540;-44
2023/01/09 03:34:50;;;;;;;10.45;6.97;;;;;;;9.63;100.00;94736.41;5028051;28;20072;-44
2023/01/09 03:37:19;;;;;;;11.23;6.90;;;;;;;9.65;100.00;94734.41;5047990;28;20543;-49
2023/01/09 03:39:47;;;;;;;12.50;7.00;;;;;;;9.00;100.00;94735.88;5049508;28;20514;-41
2023/01/09 03:42:15;;;;;;;12.77;7.03;;;;;;;9.48;100.00;94739.03;5046913;28;20116;-44
2023/01/09 03:44:43;;;;;;;11.25;6.97;;;;;;;9.65;100.00;94734.41;5045431;28;20087;-50
2023/01/09 03:47:12;;;;;;;10.57;6.72;;;;;;;9.09;100.00;94729.53;5048479;28;20587;-43
2023/01/09 03:49:40;;;;;;;11.10;6.93;;;;;;;9.19;100.00;94730.13;5046064;28;20080;-44
2023/01/09 03:52:12;;;;;;;13.57;7.03;;;;;;;9.16;100.00;94730.47;5046171;28;20077;-46
2023/01/09 03:54:41;;;;;;;11.90;6.70;;;;;;;9.42;100.00;94730.03;5045357;28;20480;-45
2023/01/09 03:57:09;;;;;;;12.00;7.00;;;;;;;9.52;100.00;94735.03;5049350;28;20103;-42
2023/01/09 03:59:38;;;;;;;11.05;6.95;;;;;;;9.51;100.00;94733.41;5045608;28;20107;-44
2023/01/09 04:02:06;;;;;;;10.95;7.10;;;;;;;9.15;100.00;94735.88;5053168;28;20088;-44
2023/01/09 04:04:35;;;;;;;10.40;6.15;;;;;;;9.18;100.00;94728.47;5041835;28;20044;-42
2023/01/09 04:07:03;;;;;;;11.15;5.88;;;;;;;9.45;100.00;94726.25;5052518;28;20087;-43
2023/01/09 04:09:33;;;;;;;10.93;5.78;;;;;;;9.39;100.00;94733.03;5047146;28;20102;-43
2023/01/09 04:12:01;;;;;;;11.27;6.23;;;;;;;9.11;100.00;94737.25;5051561;28;20075;-44
2023/01/09 04:14:29;;;;;;;10.40;5.65;;;;;;;9.00;100.00;94744.56;5046950;28;20076;-43
2023/01/09 04:16:58;;;;;;;7.30;5.22;;;;;;;9.08;100.00;94741.03;5052915;28;20446;-43
2023/01/09 04:19:26;;;;;;;9.25;5.72;;;;;;;9.32;100.00;94745.25;5033570;28;20079;-43
2023/01/09 04:21:55;;;;;;;10.05;5.25;;;;;;;9.47;100.00;94754.00;5046272;28;20076;-47
2023/01/09 04:24:23;;;;;;;9.48;5.38;;;;;;;9.42;100.00;94750.28;5042359;28;20095;-46
2023/01/09 04:26:53;;;;;;;9.10;4.82;;;;;;;9.49;100.00;94749.38;5044520;28;20069;-44
2023/01/09 04:29:21;;;;;;;6.43;4.65;;;;;;;9.59;100.00;94756.19;5044665;28;20624;-43
2023/01/09 04:31:50;;;;;;;7.90;4.32;;;;;;;8.91;100.00;94763.19;5045567;28;20091;-43
2023/01/09 04:34:24;;;;;;;6.68;4.18;;;;;;;9.39;100.00;94755.88;5044806;28;20784;-44
2023/01/09 04:36:53;;;;;;;7.32;4.28;;;;;;;9.68;100.00;94758.56;5045772;28;20033;-44
2023/01/09 04:39:22;;;;;;;7.18;4.20;;;;;;;9.42;100.00;94779.22;5043802;28;20083;-42
2023/01/09 04:41:50;;;;;;;7.63;4.78;;;;;;;9.20;100.00;94784.34;5047911;28;20080;-45
2023/01/09 04:44:25;;;;;;;6.60;4.07;;;;;;;9.19;100.00;94779.25;5051129;28;20075;-45
2023/01/09 04:46:54;;;;;;;7.40;4.30;;;;;;;9.08;100.00;94784.91;5051779;28;20448;-45
2023/01/09 04:49:22;;;;;;;7.25;4.38;;;;;;;9.36;100.00;94791.28;5053905;28;20080;-42
2023/01/09 04:51:51;;;;;;;6.63;3.97;;;;;;;9.38;100.00;94791.91;5048333;28;20080;-43
2023/01/09 04:54:20;;;;;;;7.05;3.97;;;;;;;9.63;100.00;94802.19;5053107;28;20076;-42
2023/01/09 04:56:48;;;;;;;5.57;3.95;;;;;;;9.55;100.00;94797.00;5029185;28;20061;-43
2023/01/09 04:59:17;;;;;;;6.32;3.85;;;;;;;9.51;100.00;94796.56;5049779;28;20080;-48
2023/01/09 05:01:46;;;;;;;7.10;3.65;;;;;;;9.64;100.00;94796.75;5052694;28;20088;-42
2023/01/09 05:04:15;;;;;;;11.10;4.07;;;;;;;9.27;100.00;94811.56;5047754;28;20112;-42
2023/01/09 05:06:43;;;;;;;6.68;4.10;;;;;;;9.11;100.00;94808.25;5047819;28;20093;-44
2023/01/09 05:09:12;;;;;;;7.10;4.00;;;;;;;9.51;100.00;94818.41;5052459;28;20445;-42
2023/01/09 05:11:40;;;;;;;7.75;4.43;;;;;;;9.62;100.00;94819.81;5049406;28;20067;-43
2023/01/09 05:14:08;;;;;;;7.35;3.92;;;;;;;9.12;100.00;94833.53;5052576;28;20066;-43
2023/01/09 05:16:36;;;;;;;7.82;3.55;;;;;;;9.04;100.00;94837.84;5049450;28;20075;-43
2023/01/09 05:19:06;;;;;;;5.60;2.65;;;;;;;8.75;100.00;94848.25;5048602;28;20107;-44
2023/01/09 05:21:35;;;;;;;4.80;2.57;;;;;;;8.50;100.00;94844.94;5048672;28;20083;-43
2023/01/09 05:24:03;;;;;;;3.05;1.83;;;;;;;8.64;100.00;94864.41;5049074;28;20105;-44
2023/01/09 05:26:31;;;;;;;5.88;3.30;;;;;;;8.99;100.00;94863.06;5046783;28;20076;-42
2023/01/09 05:28:59;;;;;;;3.75;1.95;;;;;;;8.86;100.00;94873.31;5048967;28;20073;-43
2023/01/09 05:31:28;;;;;;;1.80;1.30;;;;;;;9.09;100.00;94882.06;5048003;28;20061;-43
2023/01/09 05:33:58;;;;;;;2.42;1.42;;;;;;;9.10;100.00;94874.97;5054042;28;20079;-45
2023/01/09 05:36:28;;;;;;;1.63;1.00;;;;;;;9.28;100.00;94880.75;5047303;28;20081;-41
2023/01/09 05:38:57;;;;;;;1.05;0.85;;;;;;;9.59;100.00;94891.19;5047659;28;20059;-44
2023/01/09 05:41:26;;;;;;;0.93;0.70;;;;;;;9.67;100.00;94883.25;5051124;28;20074;-42
2023/01/09 05:43:54;;;;;;;0.82;0.68;;;;;;;9.87;100.00;94894.09;5048491;28;20069;-42
2023/01/09 05:46:23;;;;;;;2.72;1.10;;;;;;;10.34;100.00;94908.81;5047850;28;20085;-44
2023/01/09 05:48:51;;;;;;;1.42;0.82;;;;;;;9.57;100.00;94898.47;5042025;28;20063;-44
2023/01/09 05:51:19;;;;;;;0.85;0.68;;;;;;;9.81;100.00;94907.16;5049169;28;20068;-44
2023/01/09 05:53:49;;;;;;;1.65;0.75;;;;;;;9.80;100.00;94906.31;5046959;28;20135;-42
2023/01/09 05:56:17;;;;;;;0.70;0.50;;;;;;;9.94;100.00;94912.63;5054101;28;20147;-46
2023/01/09 05:58:46;;;;;;;0.85;0.52;;;;;;;10.02;100.00;94914.38;5048237;28;20076;-43
2023/01/09 06:01:14;;;;;;;0.45;0.40;;;;;;;9.70;100.00;94880.28;5052010;28;20080;-48
2023/01/09 06:03:42;;;;;;;0.30;0.30;;;;;;;9.98;100.00;94919.19;5047333;28;20080;-46
2023/01/09 06:06:11;;;;;;;0.57;0.30;;;;;;;9.83;100.00;94921.75;5052153;28;20077;-45
2023/01/09 06:08:39;;;;;;;0.30;0.30;;;;;;;10.08;100.00;94918.91;5050545;28;20080;-42
2023/01/09 06:11:09;;;;;;;0.20;0.20;;;;;;;10.11;100.00;94934.34;5052289;28;20088;-46
2023/01/09 06:13:37;;;;;;;0.50;0.30;;;;;;;10.05;100.00;94943.81;5051461;28;20084;-46
2023/01/09 06:16:06;;;;;;;0.30;0.20;;;;;;;10.03;100.00;94939.72;5049414;28;20503;-43
2023/01/09 06:18:35;;;;;;;0.93;0.40;;;;;;;10.10;100.00;94943.25;5029182;28;20072;-43
2023/01/09 06:21:07;;;;;;;0.35;0.30;;;;;;;10.19;100.00;94943.00;5046650;28;20725;-45
2023/01/09 06:23:35;;;;;;;0.40;0.30;;;;;;;9.99;100.00;94945.31;5049101;28;20091;-47
2023/01/09 06:26:04;;;;;;;0.20;0.20;;;;;;;10.16;100.00;94947.81;5047349;28;20467;-45
2023/01/09 06:28:34;;;;;;;0.73;0.40;;;;;;;10.20;100.00;94962.25;5051120;28;20069;-43
2023/01/09 06:31:02;;;;;;;0.23;0.23;;;;;;;10.21;100.00;94964.72;5048425;28;20820;-45
2023/01/09 06:33:31;;;;;;;0.40;0.30;;;;;;;10.31;100.00;94971.56;5050243;28;20499;-44
2023/01/09 06:35:59;;;;;;;0.30;0.20;;;;;;;10.23;100.00;94973.25;5047931;28;20072;-43
2023/01/09 06:38:27;;;;;;;0.20;0.20;;;;;;;10.33;100.00;94983.56;5052108;28;20456;-46
2023/01/09 06:40:56;;;;;;;0.30;0.25;;;;;;;10.26;100.00;94989.75;5051949;28;20116;-47
2023/01/09 06:43:25;;;;;;;0.10;0.10;;;;;;;10.17;100.00;94989.78;5046188;28;20060;-44
2023/01/09 06:45:54;;;;;;;0.13;0.13;;;;;;;10.33;100.00;94993.31;5053687;28;20332;-43
2023/01/09 06:48:23;;;;;;;0.43;0.30;;;;;;;10.37;100.00;95005.94;5044595;28;20470;-46
2023/01/09 06:50:52;;;;;;;0.22;0.20;;;;;;;10.06;100.00;94999.94;5053085;28;20319;-45
2023/01/09 06:53:20;;;;;;;0.20;0.20;;;;;;;10.12;100.00;95010.56;5051907;28;20068;-42
2023/01/09 06:55:49;;;;;;;0.50;0.20;;;;;;;10.03;100.00;95019.53;5048899;28;20100;-44
2023/01/09 06:58:17;;;;;;;0.20;0.20;;;;;;;10.25;100.00;95007.31;5032942;28;20446;-47
2023/01/09 07:00:48;;;;;;;0.45;0.20;;;;;;;10.05;100.00;95025.44;5052752;28;20068;-43
2023/01/09 07:03:20;;;;;;;0.20;0.20;;;;;;;9.82;100.00;95014.09;5051650;28;20072;-48
2023/01/09 07:05:49;;;;;;;0.30;0.30;;;;;;;9.98;100.00;95027.97;5045562;28;20089;-43
2023/01/09 07:08:17;;;;;;;0.20;0.20;;;;;;;9.86;100.00;95036.44;5048403;28;20060;-46
2023/01/09 07:10:45;;;;;;;0.20;0.20;;;;;;;9.78;100.00;95029.41;5048748;28;20063;-47
2023/01/09 07:13:14;;;;;;;0.20;0.20;;;;;;;9.76;100.00;95026.13;5047667;28;20816;-46
2023/01/09 07:15:42;;;;;;;1.13;1.05;;;;;;;9.68;100.00;95040.16;5045709;28;20089;-47
2023/01/09 07:18:10;;;;;;;0.80;0.20;;;;;;;9.69;100.00;95041.81;5045076;28;20127;-45
2023/01/09 07:20:40;;;;;;;0.20;0.20;;;;;;;9.79;100.00;95044.22;5049189;28;20080;-46
2023/01/09 07:23:11;;;;;;;0.30;0.30;;;;;;;9.39;100.00;95053.16;5050956;28;20091;-44
2023/01/09 07:25:39;;;;;;;0.22;0.22;;;;;;;9.36;100.00;95071.91;5047294;28;20088;-46
2023/01/09 07:28:07;;;;;;;0.20;0.20;;;;;;;9.41;100.00;95085.38;5047341;28;20492;-47
2023/01/09 07:30:36;;;;;;;0.20;0.20;;;;;;;9.57;100.00;95080.06;5044378;28;20112;-43
2023/01/09 07:33:05;;;;;;;0.20;0.20;;;;;;;9.16;100.00;95085.47;5034732;28;20453;-42
2023/01/09 07:35:33;;;;;;;0.20;0.20;;;;;;;9.18;100.00;95087.94;5050764;28;20603;-47
2023/01/09 07:38:03;;;;;;;0.20;0.20;;;;;;;9.28;100.00;95099.06;5047267;28;20108;-47
2023/01/09 07:40:31;;;;;;;0.43;0.40;;;;;;;8.90;100.00;95112.00;5047258;28;19973;-41
2023/01/09 07:43:00;;;;;;;0.50;0.40;;;;;;;9.13;100.00;95112.09;5045780;28;20484;-46
2023/01/09 07:45:28;;;;;;;0.20;0.20;;;;;;;9.16;100.00;95117.03;5044077;28;20080;-45
2023/01/09 07:47:56;;;;;;;0.50;0.40;;;;;;;8.99;100.00;95118.88;5048506;28;20521;-47
2023/01/09 07:50:25;;;;;;;0.20;0.20;;;;;;;8.88;100.00;95136.78;5047629;28;20064;-43
2023/01/09 07:52:53;;;;;;;0.60;0.40;;;;;;;9.14;100.00;95137.41;5047297;28;20099;-47
2023/01/09 07:55:23;;;;;;;0.20;0.20;;;;;;;9.19;100.00;95137.75;5047695;28;20520;-43
2023/01/09 07:57:52;;;;;;;0.20;0.20;;;;;;;9.07;100.00;95131.19;5050018;28;20571;-45
2023/01/09 08:00:20;;;;;;;0.45;0.30;;;;;;;9.22;100.00;95140.03;5046006;28;20535;-42
2023/01/09 08:02:52;;;;;;;0.20;0.20;;;;;;;9.25;100.00;95134.41;5043281;28;20084;-42
2023/01/09 08:05:21;;;;;;;0.40;0.30;;;;;;;9.22;100.00;95140.03;5044696;28;20081;-44
2023/01/09 08:07:50;;;;;;;0.20;0.20;;;;;;;9.26;100.00;95146.59;5048315;28;20094;-43
2023/01/09 08:10:19;;;;;;;0.30;0.30;;;;;;;9.19;100.00;95139.56;5051579;28;20093;-46
2023/01/09 08:12:50;;;;;;;0.20;0.20;;;;;;;9.22;100.00;95150.56;5045634;28;20068;-43
2023/01/09 08:15:18;;;;;;;0.30;0.22;;;;;;;9.27;100.00;95166.63;5040438;28;20507;-43
2023/01/09 08:17:47;;;;;;;0.30;0.30;;;;;;;9.34;100.00;95164.16;5044571;28;20085;-44
2023/01/09 08:20:17;;;;;;;0.20;0.20;;;;;;;9.34;100.00;95181.75;5046902;28;20072;-43
2023/01/09 08:22:48;;;;;;;3.20;0.40;;;;;;;9.41;100.00;95180.09;5034492;28;20071;-43
2023/01/09 08:25:17;;;;;;;0.40;0.38;;;;;;;8.93;100.00;95173.94;5045059;28;20448;-42
2023/01/09 08:27:46;;;;;;;0.30;0.30;;;;;;;8.82;100.00;95163.78;5043997;28;20502;-44
2023/01/09 08:30:17;;;;;;;0.20;0.20;;;;;;;9.27;100.00;95179.78;5047576;28;20131;-43
2023/01/09 08:32:49;;;;;;;1.27;0.70;;;;;;;8.79;100.00;95157.84;5044638;28;20045;-42
2023/01/09 08:35:17;;;;;;;0.30;0.30;;;;;;;8.99;100.00;95178.53;5050342;28;20151;-44
2023/01/09 08:37:46;;;;;;;0.35;0.30;;;;;;;9.39;100.00;95184.69;5044553;28;20084;-46
2023/01/09 08:40:15;;;;;;;1.40;0.30;;;;;;;9.17;100.00;95204.63;5049994;28;20072;-46
2023/01/09 08:48:18;;;;;;;0.22;0.22;;;;;;;9.11;100.00;95211.38;5051081;28;20060;-43
2023/01/09 08:50:46;;;;;;;0.40;0.30;;;;;;;9.52;100.00;95212.13;5045140;28;20068;-44
2023/01/09 08:53:15;;;;;;;0.20;0.20;;;;;;;9.34;100.00;95208.06;5050954;28;20075;-44
2023/01/09 08:55:43;;;;;;;1.90;0.32;;;;;;;9.15;100.00;95230.28;5045863;28;20080;-44
2023/01/09 08:58:12;;;;;;;0.20;0.20;;;;;;;9.34;100.00;95221.22;5045065;28;20449;-44
2023/01/09 09:00:42;;;;;;;0.52;0.28;;;;;;;9.15;100.00;95222.38;5021241;28;20068;-46
2023/01/09 09:03:10;;;;;;;0.55;0.30;;;;;;;9.45;100.00;95228.75;5050842;28;20080;-44
2023/01/09 09:05:39;;;;;;;0.30;0.30;;;;;;;9.47;100.00;95224.16;5045314;28;20084;-48
2023/01/09 09:08:07;;;;;;;0.63;0.32;;;;;;;9.20;100.00;95222.72;5031681;28;20032;-44
2023/01/09 09:10:36;;;;;;;0.20;0.20;;;;;;;9.35;100.00;95210.50;5047716;28;20073;-46
2023/01/09 09:13:04;;;;;;;0.30;0.22;;;;;;;9.29;100.00;95211.22;5051316;28;20575;-46
2023/01/09 09:15:33;;;;;;;0.75;0.30;;;;;;;9.89;100.00;95204.59;5050149;28;20095;-45
2023/01/09 09:18:05;;;;;;;1.92;0.40;;;;;;;9.77;100.00;95203.31;5046107;28;20452;-44
2023/01/09 09:20:36;;;;;;;0.20;0.20;;;;;;;9.92;100.00;95210.34;5048536;28;20520;-46
2023/01/09 09:23:06;;;;;;;0.30;0.30;;;;;;;9.82;100.00;95211.53;5045168;28;20080;-44
2023/01/09 09:25:37;;;;;;;;;;;;;;;9.64;100.00;95211.78;5059055;28;20155;-44
2023/01/09 09:28:05;;;;;;;0.73;0.30;;;;;;;10.01;100.00;95207.66;5053582;28;20032;-44
2023/01/09 09:30:34;;;;;;;0.65;0.30;;;;;;;9.85;100.00;95204.13;5054810;28;20115;-46
2023/01/09 09:33:04;;;;;;;0.60;0.38;;;;;;;9.63;100.00;95204.84;5057951;28;20080;-45
2023/01/09 09:35:33;;;;;;;0.30;0.30;;;;;;;10.00;100.00;95212.13;5059858;28;20543;-44
2023/01/09 09:38:03;;;;;;;0.75;0.43;;;;;;;9.91;100.00;95207.88;5051195;28;20609;-43
2023/01/09 09:40:47;;;;;;;0.93;0.50;;;;;;;10.22;100.00;95210.53;5058327;28;20072;-48
2023/01/09 09:46:21;;;;;;;0.75;0.47;;;;;;;10.17;100.00;95233.94;5050712;28;20546;-44
2023/01/09 09:48:53;;;;;;;0.30;0.30;;;;;;;9.74;100.00;95236.09;5057835;28;20083;-49
2023/01/09 09:51:56;;;;;;;0.43;0.35;;;;;;;9.60;100.00;95229.72;5058420;28;20068;-44
2023/01/09 09:54:44;;;;;;;0.40;0.30;;;;;;;9.83;100.00;95247.41;5056552;28;20048;-46
2023/01/09 09:57:17;;;;;;;0.30;0.28;;;;;;;10.17;100.00;95240.00;5047686;28;20081;-48
2023/01/09 09:59:50;;;;;;;0.63;0.40;;;;;;;10.40;100.00;95231.38;5059147;28;20080;-46
2023/01/09 10:02:26;;;;;;;0.57;0.20;;;;;;;10.17;100.00;95226.84;5049963;28;20093;-47
2023/01/09 10:04:59;;;;;;;0.30;0.30;;;;;;;9.86;100.00;95220.72;5049632;28;20080;-44
2023/01/09 10:07:31;;;;;;;2.33;0.40;;;;;;;10.09;100.00;95219.00;5055785;28;20101;-45
2023/01/09 10:10:03;;;;;;;1.65;0.20;;;;;;;10.31;100.00;95225.31;5034375;28;20076;-42
2023/01/09 10:12:35;;;;;;;3.38;0.55;;;;;;;9.92;100.00;95223.50;5060470;28;20080;-42
2023/01/09 10:15:16;;;;;;;0.65;0.30;;;;;;;10.06;100.00;95215.88;5034273;28;20072;-43
2023/01/09 10:17:56;;;;;;;0.30;0.30;;;;;;;10.13;100.00;95207.13;5046872;28;20076;-46
2023/01/09 10:20:50;;;;;;;1.63;0.40;;;;;;;10.60;100.00;95208.03;5054511;28;20072;-45
2023/01/09 10:23:31;;;;;;;2.42;0.65;;;;;;;10.41;100.00;95204.84;5059782;28;20095;-46
2023/01/09 10:26:04;;;;;;;0.38;0.30;;;;;;;10.11;100.00;95211.72;5054402;28;20119;-45
2023/01/09 10:28:49;;;;;;;0.20;0.20;;;;;;;10.02;100.00;95214.59;5054940;28;20072;-44
2023/01/09 10:31:23;;;;;;;0.73;0.30;;;;;;;10.47;100.00;95211.25;5048949;28;20076;-42
2023/01/09 10:34:00;;;;;;;3.75;0.70;;;;;;;10.22;100.00;95210.53;5050916;28;20528;-43
2023/01/09 10:36:45;;;;;;;0.32;0.30;;;;;;;10.16;100.00;95190.97;5041948;28;20102;-44
2023/01/09 10:39:18;;;;;;;3.15;0.70;;;;;;;10.28;100.00;95199.31;5049831;28;20080;-43
2023/01/09 10:41:54;;;;;;;0.95;0.60;;;;;;;10.21;100.00;95185.16;5051722;28;20099;-42
2023/01/09 10:44:32;;;;;;;5.53;1.23;;;;;;;9.97;100.00;95196.66;5058524;28;20067;-42
2023/01/09 10:47:01;;;;;;;0.30;0.20;;;;;;;10.10;100.00;95196.91;5046432;28;20084;-46
2023/01/09 10:49:30;;;;;;;1.35;0.40;;;;;;;10.41;100.00;95204.03;5037159;28;20506;-43
2023/01/09 10:52:05;;;;;;;2.10;0.70;;;;;;;9.95;100.00;95204.75;5051864;28;20071;-43
2023/01/09 10:54:34;;;;;;;0.43;0.43;;;;;;;10.50;100.00;95194.25;5052778;28;20095;-43
2023/01/09 10:57:07;;;;;;;0.85;0.50;;;;;;;9.86;100.00;95194.41;5052594;28;20087;-46
2023/01/09 10:59:35;;;;;;;0.60;0.30;;;;;;;10.46;100.00;95199.06;5028374;28;20079;-49
2023/01/09 11:02:04;;;;;;;2.50;0.73;;;;;;;10.33;100.00;95207.53;5056224;28;20103;-44
2023/01/09 11:04:36;;;;;;;1.25;0.30;;;;;;;10.33;100.00;95204.91;5030576;28;20053;-47
2023/01/09 11:07:12;;;;;;;0.43;0.40;;;;;;;10.56;100.00;95207.53;5050510;28;20037;-45
2023/01/09 11:09:57;;;;;;;0.77;0.40;;;;;;;10.33;100.00;95201.44;5047798;28;20076;-45
2023/01/09 11:12:27;;;;;;;0.73;0.38;;;;;;;10.32;100.00;95199.78;5060749;28;20458;-45
2023/01/09 11:14:56;;;;;;;2.83;0.75;;;;;;;10.71;100.00;95204.16;5055304;28;20084;-44
2023/01/09 11:17:27;;;;;;;1.98;0.50;;;;;;;10.16;100.00;95187.53;5055282;28;20037;-44
2023/01/09 11:20:02;;;;;;;1.33;0.40;;;;;;;10.31;100.00;95196.34;5053882;28;20497;-43
2023/01/09 11:22:43;;;;;;;0.65;0.43;;;;;;;10.14;100.00;95197.41;5048245;28;20076;-43
2023/01/09 11:25:13;;;;;;;2.65;0.50;;;;;;;10.19;100.00;95190.63;5048447;28;20072;-44
2023/01/09 11:27:42;;;;;;;0.70;0.40;;;;;;;10.68;100.00;95190.31;5043969;28;20081;-44
2023/01/09 11:30:20;;;;;;;1.23;0.47;;;;;;;10.63;100.00;95200.59;5044534;28;20072;-45
2023/01/09 11:32:48;;;;;;;1.88;0.43;;;;;;;10.61;100.00;95199.13;5047057;28;20077;-43
2023/01/09 11:35:22;;;;;;;1.92;0.98;;;;;;;10.79;100.00;95201.47;5042245;28;20083;-44
2023/01/09 11:38:04;;;;;;;1.15;0.40;;;;;;;11.14;100.00;95194.72;5044548;28;20068;-44
2023/01/09 11:40:38;;;;;;;2.00;0.40;;;;;;;11.11;100.00;95197.72;5038663;28;20148;-46
2023/01/09 11:43:18;;;;;;;0.30;0.20;;;;;;;11.33;100.00;95204.78;5039242;28;20072;-43
2023/01/09 11:45:50;;;;;;;0.28;0.28;;;;;;;10.84;100.00;95210.47;5040435;28;20064;-43
2023/01/09 11:48:32;;;;;;;4.00;0.30;;;;;;;11.35;100.00;95213.31;5032959;28;20076;-43
2023/01/09 11:51:03;;;;;;;1.60;0.63;;;;;;;11.20;99.67;95206.38;5029915;28;20650;-43
2023/01/09 11:53:45;;;;;;;7.50;0.60;;;;;;;11.18;100.00;95211.81;5030886;28;20137;-46
2023/01/09 11:56:14;;;;;;;0.13;0.13;;;;;;;11.06;100.00;95210.63;5039568;28;20552;-43
2023/01/09 11:58:42;;;;;;;2.55;0.50;;;;;;;10.85;100.00;95209.47;5031914;28;20176;-46